CZ-0014 weather

Nová Amerika Heliport
Nová Amerika, Hradec Králové Region, Czechia

Public forecast

Using degrees Celsius for public forecast. Weather courtesy of forecast.io.

METAR (pilot weather report)

Closest report is Pardubice Airport, 22.6 nm (41.8 km) SSW. Retrieved 2019/07/22 20:00 UTC (38 seconds ago):

LKPD 222000Z VRB02KT CAVOK 25/12 Q1022 NOSIG

TAF (pilot weather forecast)

Closest forecast is Pardubice Airport, 22.6 nm (41.8 km) SSW. Retrieved 2019/07/22 18:05 UTC (2 hours ago):

TAF LKPD 221700Z 2218/2318 30006KT CAVOK BECMG 2306/2308 32012KT TEMPO 2312/2318 34016G26KT